Terminal Aerodrome Forecast
Issued by NWS St Louis, MO

Home | Current Version | Previous Version | Graphics & Text | Print | Product List | Glossary Off
Versions: 1 2 3 4 5 6 7 8 9 10 11 12 13 14 15 16 17 18 19 20 21 22 23 24 25 26 27 28 29

000
FTUS43 KLSX 010401 AAB
TAFSTL
TAF AMD
KSTL 010401Z 0104/0206 16006KT P6SM VCSH BKN120
     FM011400 30005KT P6SM BKN080
     FM020000 32004KT P6SM BKN120=

USA.gov is the U.S. government's official web portal to all federal, state and local government web resources and services.